createdAt,value
2023-05-09T00:01:58.575Z,66.88
2023-05-09T00:06:22.486Z,66.97
2023-05-09T00:10:46.479Z,66.83
2023-05-09T00:15:10.291Z,66.92
2023-05-09T00:19:34.134Z,67.29
2023-05-09T00:23:57.560Z,67.30
2023-05-09T00:28:21.363Z,67.59
2023-05-09T00:32:45.220Z,67.59
2023-05-09T00:37:09.194Z,67.86
2023-05-09T00:41:32.655Z,68.09
2023-05-09T00:45:50.146Z,67.90
2023-05-09T00:50:13.939Z,68.15
2023-05-09T00:54:37.807Z,68.28
2023-05-09T00:59:01.550Z,68.53
2023-05-09T01:02:35.714Z,68.44
2023-05-09T01:05:52.452Z,68.45
2023-05-09T01:09:14.074Z,68.46
2023-05-09T01:12:30.309Z,68.37
2023-05-09T01:15:39.154Z,68.63
2023-05-09T01:19:06.693Z,68.85
2023-05-09T01:22:14.159Z,69.03
2023-05-09T01:25:32.808Z,69.01
2023-05-09T01:29:12.930Z,68.92
2023-05-09T01:32:23.161Z,68.94
2023-05-09T01:35:29.303Z,68.75
2023-05-09T01:38:33.170Z,69.13
2023-05-09T01:41:37.898Z,69.11
2023-05-09T01:44:44.303Z,69.31
2023-05-09T01:47:49.358Z,69.19
2023-05-09T01:50:54.914Z,69.16
2023-05-09T01:53:59.779Z,69.28
2023-05-09T01:57:04.844Z,69.43
2023-05-09T02:00:10.106Z,69.42
2023-05-09T02:03:22.008Z,69.72
2023-05-09T02:06:25.637Z,69.72
2023-05-09T02:09:28.656Z,69.77
2023-05-09T02:12:31.430Z,69.63
2023-05-09T02:15:34.842Z,69.80
2023-05-09T02:18:38.385Z,69.67
2023-05-09T02:21:41.904Z,69.45
2023-05-09T02:24:46.895Z,69.07
2023-05-09T02:27:51.126Z,69.20
2023-05-09T02:30:57.004Z,69.38
2023-05-09T02:34:02.290Z,69.47
2023-05-09T02:37:05.662Z,69.64
2023-05-09T02:40:11.973Z,69.92
2023-05-09T02:43:15.356Z,69.99
2023-05-09T02:46:18.484Z,70.04
2023-05-09T02:49:31.592Z,70.34
2023-05-09T02:52:36.209Z,70.31
2023-05-09T02:55:39.163Z,70.44
2023-05-09T02:58:41.877Z,70.21
2023-05-09T03:01:44.671Z,69.86
2023-05-09T03:04:47.452Z,70.10
2023-05-09T03:07:51.404Z,70.33
2023-05-09T03:10:54.380Z,70.65
2023-05-09T03:13:57.925Z,71.09
2023-05-09T03:17:00.936Z,71.29
2023-05-09T03:20:09.843Z,71.87
2023-05-09T03:23:12.711Z,72.28
2023-05-09T03:26:15.607Z,72.48
2023-05-09T03:29:18.338Z,72.61
2023-05-09T03:32:21.115Z,73.09
2023-05-09T03:35:24.044Z,73.02
2023-05-09T03:38:26.794Z,72.88
2023-05-09T03:41:30.615Z,73.24
2023-05-09T03:44:33.574Z,72.45
2023-05-09T03:47:36.519Z,71.96
2023-05-09T03:50:39.342Z,71.23
2023-05-09T03:53:46.130Z,70.50
2023-05-09T03:56:50.778Z,70.07
2023-05-09T03:59:53.754Z,69.46
2023-05-09T04:02:56.856Z,68.82
2023-05-09T04:06:13.088Z,68.06
2023-05-09T04:09:19.229Z,67.38
2023-05-09T04:12:23.145Z,66.90
2023-05-09T04:15:27.136Z,66.23
2023-05-09T04:18:31.371Z,65.68
2023-05-09T04:21:34.323Z,65.85
2023-05-09T04:24:37.690Z,64.76
2023-05-09T04:27:40.643Z,64.63
2023-05-09T04:30:43.587Z,64.26
2023-05-09T04:33:46.582Z,63.56
2023-05-09T04:36:49.458Z,63.06
2023-05-09T04:39:52.368Z,62.23
2023-05-09T04:43:00.736Z,61.27
2023-05-09T04:46:06.304Z,60.41
2023-05-09T04:49:09.726Z,59.71
2023-05-09T04:52:12.510Z,59.50
2023-05-09T04:55:15.952Z,58.62
2023-05-09T04:58:21.208Z,58.04
2023-05-09T05:01:24.034Z,57.43
2023-05-09T05:04:28.223Z,57.12
2023-05-09T05:07:31.178Z,56.86
2023-05-09T05:10:34.274Z,56.66
2023-05-09T05:13:41.799Z,56.71
2023-05-09T05:16:45.002Z,56.16
2023-05-09T05:19:48.450Z,55.71
2023-05-09T05:22:51.748Z,55.69
2023-05-09T05:25:54.718Z,55.02
2023-05-09T05:28:58.716Z,54.34
2023-05-09T05:32:01.777Z,54.64
2023-05-09T05:35:05.072Z,54.42
2023-05-09T05:38:08.681Z,54.63
2023-05-09T05:41:12.307Z,53.93
2023-05-09T05:44:16.212Z,53.81
2023-05-09T05:47:19.608Z,53.37
2023-05-09T05:50:23.484Z,52.75
2023-05-09T05:53:26.492Z,52.63
2023-05-09T05:56:29.625Z,52.44
2023-05-09T05:59:33.033Z,51.89
2023-05-09T06:02:36.095Z,51.82
2023-05-09T06:05:43.108Z,50.54
2023-05-09T06:08:46.753Z,50.28
2023-05-09T06:11:50.363Z,50.28
2023-05-09T06:14:53.396Z,49.92
2023-05-09T06:17:56.481Z,49.40
2023-05-09T06:20:59.452Z,48.48
2023-05-09T06:24:11.823Z,48.21
2023-05-09T06:27:17.348Z,48.65
2023-05-09T06:33:25.945Z,48.48
2023-05-09T06:36:28.686Z,49.11
2023-05-09T06:39:31.538Z,48.32
2023-05-09T06:42:34.400Z,48.44
2023-05-09T06:45:37.172Z,47.99
2023-05-09T06:48:40.028Z,47.42
2023-05-09T06:51:42.747Z,48.06
2023-05-09T06:54:45.492Z,47.96
2023-05-09T06:57:48.311Z,46.26
2023-05-09T07:00:51.581Z,46.23
2023-05-09T07:03:54.325Z,44.64
2023-05-09T07:06:57.132Z,44.14
2023-05-09T07:10:10.551Z,44.51
2023-05-09T07:13:14.610Z,44.21
2023-05-09T07:16:18.570Z,44.33
2023-05-09T07:19:21.628Z,43.74
2023-05-09T07:22:24.509Z,42.93
2023-05-09T07:25:27.465Z,42.69
2023-05-09T07:28:30.279Z,42.78
2023-05-09T07:31:35.317Z,43.04
2023-05-09T07:34:40.253Z,42.18
2023-05-09T07:37:43.026Z,41.11
2023-05-09T07:40:45.824Z,40.76
2023-05-09T07:43:48.575Z,39.00
2023-05-09T07:46:51.384Z,40.24
2023-05-09T07:49:54.186Z,40.30
2023-05-09T07:52:56.976Z,40.42
2023-05-09T07:55:59.936Z,39.44
2023-05-09T07:59:03.495Z,40.83
2023-05-09T08:02:06.656Z,40.68
2023-05-09T08:05:11.782Z,41.12
2023-05-09T08:08:14.625Z,39.54
2023-05-09T08:11:17.455Z,38.98
2023-05-09T08:14:20.239Z,39.53
2023-05-09T08:17:22.978Z,40.49
2023-05-09T08:20:25.782Z,40.06
2023-05-09T08:23:30.407Z,40.09
2023-05-09T08:26:34.168Z,40.66
2023-05-09T08:29:36.874Z,40.63
2023-05-09T08:32:39.633Z,40.05
2023-05-09T08:35:42.567Z,36.95
2023-05-09T08:38:45.894Z,38.30
2023-05-09T08:41:48.796Z,38.02
2023-05-09T08:44:51.843Z,38.08
2023-05-09T08:47:55.158Z,37.70
2023-05-09T08:50:59.010Z,38.32
2023-05-09T08:54:02.516Z,37.30
2023-05-09T08:57:06.206Z,37.31
2023-05-09T09:00:12.095Z,37.69
2023-05-09T09:03:16.923Z,38.26
2023-05-09T09:06:22.504Z,39.62
2023-05-09T09:09:26.746Z,37.86
2023-05-09T09:12:30.042Z,37.83
2023-05-09T09:15:37.867Z,36.92
2023-05-09T09:18:40.966Z,35.56
2023-05-09T09:21:47.350Z,35.65
2023-05-09T09:24:50.927Z,36.86
2023-05-09T09:27:53.717Z,36.55
2023-05-09T09:30:56.947Z,35.47
2023-05-09T09:34:01.418Z,35.32
2023-05-09T09:37:07.263Z,34.56
2023-05-09T09:40:12.106Z,34.46
2023-05-09T09:43:15.375Z,34.95
2023-05-09T09:46:19.443Z,36.18
2023-05-09T09:49:23.974Z,35.72
2023-05-09T09:52:27.092Z,36.81
2023-05-09T09:55:29.924Z,37.10
2023-05-09T09:58:32.684Z,36.93
2023-05-09T10:01:35.454Z,37.19
2023-05-09T10:04:41.426Z,36.49
2023-05-09T10:07:44.143Z,34.69
2023-05-09T10:10:47.127Z,34.93
2023-05-09T10:13:50.452Z,36.31
2023-05-09T10:16:57.687Z,33.92
2023-05-09T10:20:05.981Z,34.64
2023-05-09T10:23:11.784Z,34.40
2023-05-09T10:26:38.198Z,35.07
2023-05-09T10:29:46.600Z,34.27
2023-05-09T10:32:51.934Z,35.35
2023-05-09T10:35:56.332Z,35.98
2023-05-09T10:39:01.344Z,34.73
2023-05-09T10:42:06.064Z,33.21
2023-05-09T10:45:11.017Z,32.40
2023-05-09T10:48:14.576Z,32.91
2023-05-09T10:51:17.699Z,33.88
2023-05-09T10:54:33.622Z,32.91
2023-05-09T10:57:39.225Z,32.65
2023-05-09T11:00:42.535Z,32.39
2023-05-09T11:04:00.085Z,33.71
2023-05-09T11:07:02.961Z,33.80
2023-05-09T11:10:10.003Z,32.87
2023-05-09T11:13:13.304Z,33.66
2023-05-09T11:16:16.537Z,33.18
2023-05-09T11:19:53.909Z,33.95
2023-05-09T11:22:57.537Z,33.65
2023-05-09T11:26:08.620Z,32.27
2023-05-09T11:29:12.350Z,32.93
2023-05-09T11:32:16.068Z,32.42
2023-05-09T11:35:21.259Z,34.38
2023-05-09T11:38:25.739Z,32.95
2023-05-09T11:41:29.370Z,32.88
2023-05-09T11:44:33.626Z,32.92
2023-05-09T11:47:40.296Z,33.07
2023-05-09T11:50:43.116Z,33.15
2023-05-09T11:53:49.725Z,32.30
2023-05-09T11:56:52.351Z,32.12
2023-05-09T11:59:55.515Z,32.74
2023-05-09T12:02:58.381Z,33.71
2023-05-09T12:06:01.325Z,34.41
2023-05-09T12:09:04.213Z,34.02
2023-05-09T12:12:13.838Z,33.66
2023-05-09T12:15:18.141Z,32.38
2023-05-09T12:18:22.248Z,34.48
2023-05-09T12:21:25.026Z,35.05
2023-05-09T12:24:29.429Z,33.51
2023-05-09T12:27:33.202Z,33.64
2023-05-09T12:30:36.120Z,33.66
2023-05-09T12:33:39.745Z,32.65
2023-05-09T12:36:50.843Z,32.87
2023-05-09T12:40:15.538Z,32.55
2023-05-09T12:43:18.614Z,32.81
2023-05-09T12:46:22.003Z,32.50
2023-05-09T12:49:26.047Z,33.64
2023-05-09T12:52:54.103Z,34.08
2023-05-09T12:56:11.586Z,32.97
2023-05-09T12:59:20.642Z,33.22
2023-05-09T13:02:23.652Z,33.17
2023-05-09T13:05:26.550Z,33.31
2023-05-09T13:08:30.263Z,32.84
2023-05-09T13:11:33.310Z,33.31
2023-05-09T13:14:36.115Z,32.53
2023-05-09T13:17:38.986Z,33.21
2023-05-09T13:20:41.851Z,33.65
2023-05-09T13:23:45.649Z,33.96
2023-05-09T13:26:48.930Z,33.49
2023-05-09T13:29:51.745Z,32.63
2023-05-09T13:32:54.544Z,33.26
2023-05-09T13:35:57.550Z,33.57
2023-05-09T13:39:00.772Z,32.85
2023-05-09T13:42:04.085Z,33.46
2023-05-09T13:45:08.379Z,33.50
2023-05-09T13:48:11.825Z,32.37
2023-05-09T13:51:15.101Z,32.46
2023-05-09T13:54:19.916Z,33.12
2023-05-09T13:57:22.805Z,32.51
2023-05-09T14:00:26.707Z,32.50
2023-05-09T14:03:29.695Z,32.93
2023-05-09T14:06:33.344Z,33.09
2023-05-09T14:09:40.097Z,32.81
2023-05-09T14:12:47.289Z,32.83
2023-05-09T14:15:50.258Z,33.35
2023-05-09T14:18:53.061Z,33.23
2023-05-09T14:21:56.124Z,32.96
2023-05-09T14:24:59.152Z,33.51
2023-05-09T14:28:01.885Z,33.44
2023-05-09T14:31:06.396Z,33.44
2023-05-09T14:34:09.480Z,32.54
2023-05-09T14:37:15.193Z,33.03
2023-05-09T14:40:18.128Z,31.88
2023-05-09T14:43:24.361Z,33.00
2023-05-09T14:46:27.274Z,32.48
2023-05-09T14:49:30.357Z,32.62
2023-05-09T14:52:33.116Z,32.71
2023-05-09T14:55:36.342Z,33.69
2023-05-09T14:58:39.130Z,32.98
2023-05-09T15:01:42.100Z,32.79
2023-05-09T15:04:45.108Z,33.22
2023-05-09T15:07:47.973Z,33.08
2023-05-09T15:10:51.403Z,33.00
2023-05-09T15:13:54.379Z,33.55
2023-05-09T15:17:00.100Z,32.67
2023-05-09T15:20:04.396Z,33.53
2023-05-09T15:23:07.914Z,33.83
2023-05-09T15:26:13.592Z,33.63
2023-05-09T15:29:16.358Z,33.11
2023-05-09T15:32:19.125Z,32.65
2023-05-09T15:35:21.859Z,33.14
2023-05-09T15:38:24.822Z,33.81
2023-05-09T15:41:27.529Z,33.55
2023-05-09T15:44:30.241Z,32.93
2023-05-09T15:47:33.081Z,32.95
2023-05-09T15:50:36.054Z,33.55
2023-05-09T15:53:38.997Z,33.54
2023-05-09T15:56:41.772Z,33.58
2023-05-09T15:59:44.632Z,34.31
2023-05-09T16:02:47.531Z,34.70
2023-05-09T16:05:50.932Z,34.02
2023-05-09T16:08:54.374Z,34.20
2023-05-09T16:11:57.139Z,34.42
2023-05-09T16:15:00.680Z,34.19
2023-05-09T16:18:03.734Z,34.45
2023-05-09T16:21:06.793Z,34.44
2023-05-09T16:24:09.623Z,34.62
2023-05-09T16:27:14.416Z,34.46
2023-05-09T16:30:17.585Z,34.89
2023-05-09T16:33:20.844Z,34.77
2023-05-09T16:36:23.772Z,35.24
2023-05-09T16:39:28.073Z,35.39
2023-05-09T16:42:30.946Z,35.48
2023-05-09T16:45:33.766Z,35.64
2023-05-09T16:48:36.571Z,36.10
2023-05-09T16:51:39.518Z,36.23
2023-05-09T16:54:42.320Z,36.07
2023-05-09T16:57:45.052Z,35.90
2023-05-09T17:00:48.268Z,36.24
2023-05-09T17:03:51.320Z,36.77
2023-05-09T17:06:54.204Z,37.19
2023-05-09T17:09:56.944Z,36.64
2023-05-09T17:12:59.932Z,36.92
2023-05-09T17:16:02.945Z,37.18
2023-05-09T17:19:05.784Z,37.50
2023-05-09T17:22:08.850Z,37.28
2023-05-09T17:25:11.775Z,37.47
2023-05-09T17:28:14.637Z,37.72
2023-05-09T17:31:17.483Z,37.46
2023-05-09T17:34:20.406Z,37.75
2023-05-09T17:37:23.310Z,37.91
2023-05-09T17:40:26.228Z,37.58
2023-05-09T17:43:29.004Z,37.81
2023-05-09T17:46:32.523Z,38.01
2023-05-09T17:49:36.459Z,38.16
2023-05-09T17:52:39.849Z,38.00
2023-05-09T17:55:43.130Z,38.25
2023-05-09T17:58:46.355Z,38.35
2023-05-09T18:01:49.182Z,38.32
2023-05-09T18:04:52.458Z,38.55
2023-05-09T18:07:56.769Z,38.94
2023-05-09T18:10:59.501Z,39.06
2023-05-09T18:14:02.911Z,39.27
2023-05-09T18:17:05.737Z,39.53
2023-05-09T18:20:09.203Z,39.54
2023-05-09T18:23:12.082Z,39.81
2023-05-09T18:26:14.973Z,39.82
2023-05-09T18:29:17.901Z,40.05
2023-05-09T18:32:21.328Z,40.37
2023-05-09T18:35:24.360Z,40.41
2023-05-09T18:38:27.440Z,40.70
2023-05-09T18:41:31.954Z,40.83
2023-05-09T18:44:36.521Z,40.97
2023-05-09T18:47:39.361Z,41.21
2023-05-09T18:50:42.683Z,41.49
2023-05-09T18:53:47.316Z,41.67
2023-05-09T18:56:50.254Z,41.88
2023-05-09T18:59:53.030Z,42.22
2023-05-09T19:02:55.878Z,42.41
2023-05-09T19:05:59.903Z,42.66
2023-05-09T19:09:04.276Z,42.68
2023-05-09T19:12:09.171Z,43.03
2023-05-09T19:15:12.531Z,43.19
2023-05-09T19:18:15.359Z,43.28
2023-05-09T19:21:18.849Z,43.80
2023-05-09T19:24:22.186Z,43.86
2023-05-09T19:27:24.948Z,44.28
2023-05-09T19:30:27.785Z,44.23
2023-05-09T19:33:30.595Z,44.42
2023-05-09T19:36:33.778Z,44.53
2023-05-09T19:39:36.574Z,44.66
2023-05-09T19:42:39.477Z,44.95
2023-05-09T19:45:42.670Z,45.01
2023-05-09T19:48:45.561Z,45.13
2023-05-09T19:51:48.474Z,45.52
2023-05-09T19:54:51.414Z,45.72
2023-05-09T19:57:54.219Z,45.78
2023-05-09T20:00:57.094Z,45.83
2023-05-09T20:04:00.140Z,45.85
2023-05-09T20:07:04.814Z,45.93
2023-05-09T20:10:08.395Z,46.10
2023-05-09T20:13:11.325Z,46.18
2023-05-09T20:16:14.599Z,46.34
2023-05-09T20:19:17.362Z,46.54
2023-05-09T20:22:20.749Z,46.80
2023-05-09T20:25:23.694Z,46.92
2023-05-09T20:28:26.414Z,46.89
2023-05-09T20:31:29.538Z,47.12
2023-05-09T20:34:32.419Z,47.46
2023-05-09T20:37:35.956Z,47.32
2023-05-09T20:40:38.730Z,47.59
2023-05-09T20:43:41.598Z,47.80
2023-05-09T20:46:45.441Z,47.78
2023-05-09T20:49:48.229Z,47.87
2023-05-09T20:52:51.052Z,48.20
2023-05-09T20:55:54.006Z,48.29
2023-05-09T20:59:00.854Z,48.58
2023-05-09T21:02:03.569Z,48.59
2023-05-09T21:05:06.857Z,48.86
2023-05-09T21:08:09.589Z,48.83
2023-05-09T21:11:12.301Z,48.92
2023-05-09T21:14:15.060Z,49.23
2023-05-09T21:17:18.008Z,49.53
2023-05-09T21:20:20.990Z,49.40
2023-05-09T21:23:23.731Z,49.56
2023-05-09T21:26:26.498Z,49.67
2023-05-09T21:29:29.296Z,49.71
2023-05-09T21:32:32.079Z,49.70
2023-05-09T21:35:34.827Z,49.89
2023-05-09T21:38:38.025Z,49.71
2023-05-09T21:41:43.058Z,50.17
2023-05-09T21:44:45.988Z,49.90
2023-05-09T21:47:49.164Z,50.26
2023-05-09T21:50:52.012Z,49.99
2023-05-09T21:53:55.109Z,50.05
2023-05-09T21:56:57.973Z,50.08
2023-05-09T22:00:01.600Z,50.41
2023-05-09T22:03:04.565Z,50.39
2023-05-09T22:06:07.777Z,50.53
2023-05-09T22:09:10.768Z,50.57
2023-05-09T22:12:13.580Z,50.74
2023-05-09T22:15:16.391Z,50.68
2023-05-09T22:18:19.111Z,50.77
2023-05-09T22:21:21.824Z,50.74
2023-05-09T22:24:24.874Z,51.10
2023-05-09T22:27:27.716Z,51.24
2023-05-09T22:30:30.878Z,51.29
2023-05-09T22:33:34.768Z,51.36
2023-05-09T22:36:37.476Z,51.55
2023-05-09T22:39:40.490Z,51.53
2023-05-09T22:42:43.197Z,51.67
2023-05-09T22:45:45.984Z,52.10
2023-05-09T22:48:48.729Z,52.10
2023-05-09T22:51:51.448Z,51.86
2023-05-09T22:54:54.180Z,51.98
2023-05-09T22:57:57.103Z,52.30
2023-05-09T23:00:59.848Z,52.27
2023-05-09T23:04:02.740Z,52.46
2023-05-09T23:07:05.462Z,52.87
2023-05-09T23:10:08.619Z,52.93
2023-05-09T23:13:12.440Z,53.19
2023-05-09T23:16:15.254Z,52.84
2023-05-09T23:19:18.126Z,52.95
2023-05-09T23:22:20.982Z,53.04
2023-05-09T23:25:23.810Z,53.40
2023-05-09T23:28:26.948Z,53.57
2023-05-09T23:31:29.749Z,53.41
2023-05-09T23:34:33.070Z,53.77
2023-05-09T23:37:35.925Z,53.74
2023-05-09T23:40:39.575Z,53.50
2023-05-09T23:43:42.575Z,53.68
2023-05-09T23:46:45.413Z,53.56
2023-05-09T23:49:48.218Z,53.58
2023-05-09T23:52:51.260Z,53.80
2023-05-09T23:55:54.008Z,54.05
2023-05-09T23:58:57.080Z,54.03
